logo
Search for airport 
image banner adimage banner adimage banner ad
image banner ad

ESSX - Vasteras/Johannisberg

Located in , Sweden

ICAO - ESSX, IATA -

Data provided by Airmate  

General information

Coordinates: N59°34'33" E16°30'11"
Elevation is 25 feet MSL.
 
View others Airports in Västmanlanda län

Operational data

Special qualification required
Current time UTC:
Current local time:
Weather at : ESOW - Stockholm/Vasteras ( 7 km )
METAR: ESOW 130550Z AUTO 23011KT 200V260 9999 FEW007/// BKN010/// OVC015/// 08/06 Q1011
View NOTAMs / SUP AIP / TFR affecting this airport [VIEW]
Communications frequencies: [VIEW]

Runways:

RWY identifierQFULength (ft)Width (ft)SurfaceLDA (ft)
05278975ASPH
23278975ASPH
162395164GRASS
342395164GRASS

Airport contact information

Address: Sweden

Other aviation service providers

Flight schools

Airways Flygutbildning Svenska Ab

Airways Flygutbildning Svenska Ab
+4621141800

Bf, Scandinavian Aviation Academy Ab

Bf, Scandinavian Aviation Academy Ab
info@bfsaa.se+4621802828

Flygteoriskolan Barkarby Ab

Flygteoriskolan Barkarby Ab

Heliair Sweden Ab

Heliair Sweden Ab
+4686562400

Aviation club (not for profit)

Västerås Flygklubb

Västerås Flygklubb
info@vfk.nu+4621135612

Västerås Segelflygklubb

Västerås Segelflygklubb

Västerås Ul-Flygklubb

Västerås Ul-Flygklubb
+46705767575
+46705767575

Satellite view of ESSX